Aviation Digital Data Service (ADDS)

Output produced by TAFs form (2259 UTC 24 July 2014)
found at http://aviationweather.gov/adds/tafs/
 
KASE 242121Z 2421/2518 30010G20KT P6SM VCSH OVC100 
     TEMPO 2421/2424 VRB15G25KT TSRA SCT050 BKN080CB 
     FM250000 15007KT P6SM VCTS SCT070CB BKN100 
     TEMPO 2500/2502 VRB15G25KT -SHRA SCT050 BKN070 
     FM250200 19005KT P6SM VCSH SCT060 BKN080